Time;durP1;ratioP1;P1;durP2;ratioP2;P2;SDS_P1;SDS_P2;PMS_P1;PMS_P2;Temp;Humidity;BMP_temperature;BMP_pressure;BME280_temperature;BME280_humidity;BME280_pressure;Samples;Min_cycle;Max_cycle;Signal;HPM_P1;HPM_P2
2022/04/12 00:00:26;;;;;;;15.30;8.40;;;;;;;8.72;57.27;101093.91;4999577;28;20368;-43
2022/04/12 00:02:51;;;;;;;11.50;7.18;;;;;;;8.68;58.09;101093.44;5017006;28;20041;-38
2022/04/12 00:05:18;;;;;;;13.32;7.35;;;;;;;8.74;57.44;101086.81;5017022;28;20025;-38
2022/04/12 00:07:43;;;;;;;14.35;8.10;;;;;;;8.70;57.37;101096.66;5017762;28;20026;-39
2022/04/12 00:10:13;;;;;;;12.48;7.95;;;;;;;8.72;57.62;101086.19;5017102;28;20028;-39
2022/04/12 00:12:39;;;;;;;15.18;7.38;;;;;;;8.84;57.20;101090.00;5016720;28;20096;-38
2022/04/12 00:15:06;;;;;;;12.73;7.60;;;;;;;8.74;56.76;101085.03;5017066;28;20025;-39
2022/04/12 00:20:16;;;;;;;12.05;7.63;;;;;;;8.80;56.85;101068.91;5017543;28;20092;-39
2022/04/12 00:22:42;;;;;;;13.23;7.68;;;;;;;8.67;57.68;101066.06;5017452;28;20457;-39
2022/04/12 00:25:09;;;;;;;14.45;7.68;;;;;;;8.72;58.21;101070.72;5016568;28;20026;-40
2022/04/12 00:27:39;;;;;;;13.70;7.50;;;;;;;8.76;57.27;101075.38;5016737;28;20030;-40
2022/04/12 00:30:07;;;;;;;14.18;7.63;;;;;;;8.71;57.29;101077.63;4998912;28;20064;-40
2022/04/12 00:32:33;;;;;;;10.68;7.07;;;;;;;8.87;56.29;101076.78;4999612;28;20117;-39
2022/04/12 00:34:59;;;;;;;11.73;7.07;;;;;;;8.90;56.60;101075.63;5016772;28;20029;-40
2022/04/12 00:37:25;;;;;;;13.43;7.22;;;;;;;8.83;56.67;101072.91;5016616;28;20034;-40
2022/04/12 00:39:52;;;;;;;12.48;7.72;;;;;;;8.72;56.67;101034.66;5016301;28;20472;-40
2022/04/12 00:42:17;;;;;;;12.35;7.20;;;;;;;8.90;56.55;101086.75;4998742;28;20026;-39
2022/04/12 00:44:42;;;;;;;15.93;7.30;;;;;;;8.92;56.90;101089.13;5016800;28;20036;-40
2022/04/12 00:47:07;;;;;;;11.93;7.28;;;;;;;8.94;56.54;101095.72;5016028;28;20472;-41
2022/04/12 00:49:33;;;;;;;13.88;7.68;;;;;;;8.89;56.48;101090.31;5016399;28;20060;-42
2022/04/12 00:51:58;;;;;;;16.05;7.25;;;;;;;8.90;56.01;101085.94;5016075;28;20021;-40
2022/04/12 00:54:25;;;;;;;13.05;7.15;;;;;;;9.00;56.80;101091.69;5016051;28;20030;-39
2022/04/12 00:56:52;;;;;;;13.27;7.30;;;;;;;9.06;56.22;101087.63;5016123;28;20428;-39
2022/04/12 00:59:18;;;;;;;16.42;7.88;;;;;;;9.00;56.92;101104.56;4999210;28;20029;-39
2022/04/12 01:01:43;;;;;;;14.15;6.93;;;;;;;8.99;56.11;101090.88;5015943;28;20034;-42
2022/04/12 01:04:09;;;;;;;11.07;7.10;;;;;;;8.95;56.69;101091.41;5015661;28;20532;-40
2022/04/12 01:06:36;;;;;;;14.20;7.22;;;;;;;8.95;56.49;101087.06;5015676;28;20030;-39
2022/04/12 01:09:04;;;;;;;15.65;7.25;;;;;;;8.81;56.72;101091.13;5015749;28;20314;-40
2022/04/12 01:11:30;;;;;;;14.05;7.20;;;;;;;8.84;57.23;101089.19;5015658;28;20061;-39
2022/04/12 01:13:55;;;;;;;12.43;7.25;;;;;;;8.84;57.14;101095.16;4998069;28;20030;-38
2022/04/12 01:16:20;;;;;;;16.52;7.07;;;;;;;8.91;56.93;101093.50;5015618;28;20022;-38
2022/04/12 01:18:45;;;;;;;13.02;7.30;;;;;;;8.81;56.45;101083.41;5015514;28;20030;-39
2022/04/12 01:21:12;;;;;;;10.80;7.03;;;;;;;8.85;56.75;101077.91;5015631;28;20022;-39
2022/04/12 01:23:45;;;;;;;11.18;6.43;;;;;;;8.81;56.61;101083.41;4998655;28;20029;-39
2022/04/12 01:26:10;;;;;;;12.30;6.78;;;;;;;8.83;57.57;101085.78;4998410;28;20053;-39
2022/04/12 01:28:36;;;;;;;11.57;6.65;;;;;;;8.87;57.13;101089.66;5015681;28;20026;-37
2022/04/12 01:31:02;;;;;;;14.23;7.32;;;;;;;8.78;57.23;101082.94;5015350;28;20077;-39
2022/04/12 01:33:27;;;;;;;11.27;6.90;;;;;;;8.83;57.69;101083.22;5015286;28;20021;-38
2022/04/12 01:35:53;;;;;;;11.77;6.55;;;;;;;8.75;57.02;101076.34;5015104;28;20022;-38
2022/04/12 01:38:18;;;;;;;11.48;7.30;;;;;;;8.62;56.97;101049.50;5015141;28;20133;-39
2022/04/12 01:40:43;;;;;;;11.23;7.15;;;;;;;8.71;57.20;101079.41;5014273;28;20079;-39
2022/04/12 01:43:10;;;;;;;14.30;6.60;;;;;;;8.65;57.23;101073.16;5015651;28;20029;-38
2022/04/12 01:45:36;;;;;;;12.23;6.85;;;;;;;8.54;58.55;101069.16;4997304;28;20075;-40
2022/04/12 01:48:01;;;;;;;12.57;6.63;;;;;;;8.54;58.19;101068.34;5014914;28;20473;-39
2022/04/12 01:50:26;;;;;;;15.93;6.95;;;;;;;8.59;58.08;101064.31;5014939;28;20068;-38
2022/04/12 01:52:52;;;;;;;11.75;6.90;;;;;;;8.62;57.81;101060.59;4997445;28;20388;-39
2022/04/12 01:55:17;;;;;;;12.20;6.85;;;;;;;8.51;58.95;101066.91;5014825;28;20057;-40
2022/04/12 01:57:42;;;;;;;11.82;6.68;;;;;;;8.59;58.46;101060.94;5014827;28;20079;-39
2022/04/12 02:00:09;;;;;;;13.32;6.85;;;;;;;8.42;59.27;101061.97;5014807;28;20468;-39
2022/04/12 02:02:34;;;;;;;13.73;6.90;;;;;;;8.51;58.51;101066.91;5014689;28;20040;-38
2022/04/12 02:05:00;;;;;;;12.07;7.05;;;;;;;8.52;59.75;101057.44;5014837;28;20026;-38
2022/04/12 02:07:26;;;;;;;14.35;7.53;;;;;;;8.39;59.84;101054.56;5015279;28;20062;-39
2022/04/12 02:09:52;;;;;;;13.70;7.20;;;;;;;8.31;59.72;101063.88;4997106;28;20495;-38
2022/04/12 02:12:18;;;;;;;11.10;6.75;;;;;;;8.37;60.35;101052.13;5014269;28;20084;-40
2022/04/12 02:14:43;;;;;;;12.52;7.35;;;;;;;8.40;59.51;101057.00;5014477;28;20030;-47
2022/04/12 02:17:09;;;;;;;13.00;6.90;;;;;;;8.38;60.15;101052.94;5014686;28;20025;-38
2022/04/12 02:19:34;;;;;;;11.55;7.07;;;;;;;8.22;60.92;101054.56;5014530;28;20049;-41
2022/04/12 02:21:59;;;;;;;13.95;7.30;;;;;;;8.34;60.00;101052.44;5013926;28;20492;-39
2022/04/12 02:24:24;;;;;;;15.23;7.55;;;;;;;8.22;60.38;101056.34;5013131;28;20034;-39
2022/04/12 02:26:50;;;;;;;14.48;6.63;;;;;;;8.34;60.20;101053.28;5014494;28;20076;-39
2022/04/12 02:29:15;;;;;;;12.30;7.40;;;;;;;8.32;60.33;101046.69;5014274;28;20038;-38
2022/04/12 02:31:41;;;;;;;13.77;7.18;;;;;;;8.16;61.65;101044.94;5014541;28;20046;-38
2022/04/12 02:34:07;;;;;;;11.45;7.07;;;;;;;7.99;62.45;101046.72;5014997;28;20029;-39
2022/04/12 02:36:32;;;;;;;11.82;7.28;;;;;;;7.90;60.98;101047.72;5014201;28;20376;-38
2022/04/12 02:38:57;;;;;;;11.85;7.45;;;;;;;7.91;62.30;101047.56;5014474;28;20022;-38
2022/04/12 02:41:23;;;;;;;13.73;7.50;;;;;;;7.97;62.36;101047.84;5014094;28;20021;-39
2022/04/12 02:43:48;;;;;;;16.40;7.80;;;;;;;7.93;61.53;101044.00;5014087;28;20032;-39
2022/04/12 02:46:14;;;;;;;15.23;7.53;;;;;;;7.89;61.70;101039.19;5014223;28;20076;-39
2022/04/12 02:48:39;;;;;;;12.35;7.30;;;;;;;7.91;61.88;101037.28;5014033;28;20022;-38
2022/04/12 02:51:04;;;;;;;13.93;7.07;;;;;;;7.88;62.06;101032.44;5013935;28;20040;-38
2022/04/12 02:53:30;;;;;;;12.15;7.50;;;;;;;7.87;61.67;101032.59;5013976;28;20022;-39
2022/04/12 02:55:55;;;;;;;13.18;7.55;;;;;;;7.75;63.77;101023.63;5013946;28;20022;-39
2022/04/12 02:58:20;;;;;;;13.55;7.93;;;;;;;7.53;64.16;101020.72;5013887;28;20105;-39
2022/04/12 03:00:46;;;;;;;11.50;7.45;;;;;;;7.55;64.67;101025.72;5014181;28;20045;-39
2022/04/12 03:03:11;;;;;;;12.10;7.38;;;;;;;7.59;63.93;101017.50;5014029;28;20025;-39
2022/04/12 03:05:36;;;;;;;13.50;7.78;;;;;;;7.52;63.89;101018.31;5013295;28;20014;-38
2022/04/12 03:08:01;;;;;;;11.48;7.70;;;;;;;7.52;65.36;101016.53;5013735;28;20028;-43
2022/04/12 03:10:27;;;;;;;12.60;7.53;;;;;;;7.39;65.84;101017.03;4996010;28;20032;-38
2022/04/12 03:12:52;;;;;;;14.73;7.47;;;;;;;7.45;65.16;101010.41;5013523;28;20077;-41
2022/04/12 03:15:18;;;;;;;12.95;7.72;;;;;;;7.42;64.87;101006.44;4979831;28;20022;-40
2022/04/12 03:17:43;;;;;;;11.95;7.65;;;;;;;7.42;67.07;101005.59;5013806;28;20073;-40
2022/04/12 03:20:09;;;;;;;14.50;8.07;;;;;;;7.25;66.61;101012.53;5014041;28;20033;-40
2022/04/12 03:22:34;;;;;;;14.45;7.63;;;;;;;7.18;65.83;101001.25;5013750;28;20383;-40
2022/04/12 03:25:01;;;;;;;12.55;7.22;;;;;;;7.10;66.16;101001.25;5013416;28;20026;-40
2022/04/12 03:27:27;;;;;;;14.63;7.80;;;;;;;7.25;65.45;101004.81;4995837;28;20026;-40
2022/04/12 03:29:52;;;;;;;11.95;7.82;;;;;;;7.24;67.46;101003.97;5013773;28;20032;-40
2022/04/12 03:32:17;;;;;;;11.02;7.45;;;;;;;7.18;66.97;101002.06;5013579;28;20028;-40
2022/04/12 03:34:44;;;;;;;13.25;7.75;;;;;;;7.17;67.27;100997.88;5016402;28;20030;-39
2022/04/12 03:37:10;;;;;;;13.13;7.95;;;;;;;7.04;67.87;101012.16;4999844;28;20373;-39
2022/04/12 03:39:35;;;;;;;14.23;7.95;;;;;;;7.19;67.44;101005.44;5017699;28;20102;-40
2022/04/12 03:42:01;;;;;;;13.32;7.55;;;;;;;7.17;67.24;101008.16;5017414;28;20036;-48
2022/04/12 03:44:26;;;;;;;13.93;7.47;;;;;;;7.08;67.02;100996.28;5018088;28;20029;-40
2022/04/12 03:46:51;;;;;;;12.93;7.97;;;;;;;7.08;66.82;100996.28;4999563;28;20018;-40
2022/04/12 03:49:16;;;;;;;15.80;8.32;;;;;;;7.07;68.21;100997.22;5017318;28;20026;-40
2022/04/12 03:51:42;;;;;;;13.57;7.60;;;;;;;7.00;68.30;100994.50;5017280;28;20076;-40
2022/04/12 03:54:07;;;;;;;14.00;8.18;;;;;;;6.95;67.40;100998.50;5017246;28;20109;-40
2022/04/12 03:56:32;;;;;;;11.45;7.93;;;;;;;7.13;66.47;100983.72;5017169;28;20032;-40
2022/04/12 03:58:58;;;;;;;11.20;7.55;;;;;;;7.17;66.51;100987.59;5017063;28;20026;-39
2022/04/12 04:01:25;;;;;;;15.73;7.70;;;;;;;7.19;66.95;100983.13;5017100;28;20028;-40
2022/04/12 04:03:50;;;;;;;10.60;7.60;;;;;;;7.10;67.52;100981.47;5017300;28;20026;-40
2022/04/12 04:06:16;;;;;;;15.05;7.60;;;;;;;7.11;65.80;100977.16;5016916;28;20542;-40
2022/04/12 04:08:41;;;;;;;14.43;7.63;;;;;;;7.27;65.08;100984.88;5016828;28;20100;-40
2022/04/12 04:11:06;;;;;;;12.10;7.68;;;;;;;7.19;66.49;100977.97;5016894;28;20056;-39
2022/04/12 04:13:36;;;;;;;13.40;7.40;;;;;;;7.31;65.21;100981.03;5017149;28;20025;-40
2022/04/12 04:16:02;;;;;;;17.20;8.05;;;;;;;7.26;65.41;100974.75;5017864;28;20029;-40
2022/04/12 04:18:27;;;;;;;12.18;7.82;;;;;;;7.20;65.65;100976.22;5016975;28;20037;-39
2022/04/12 04:20:52;;;;;;;13.00;7.43;;;;;;;7.21;65.47;100978.59;5016722;28;20025;-40
2022/04/12 04:23:18;;;;;;;15.27;8.23;;;;;;;7.14;67.43;100977.66;5016995;28;20116;-40
2022/04/12 04:25:43;;;;;;;16.83;7.65;;;;;;;7.10;66.06;100984.06;5016815;28;20025;-40
2022/04/12 04:28:11;;;;;;;13.63;7.70;;;;;;;7.26;65.83;100967.06;5016876;28;20040;-40
2022/04/12 04:30:38;;;;;;;13.63;7.63;;;;;;;7.32;65.04;100969.78;5016775;28;20021;-39
2022/04/12 04:33:05;;;;;;;11.70;7.20;;;;;;;7.27;65.01;100982.31;5016702;28;20022;-39
2022/04/12 04:35:31;;;;;;;13.32;7.53;;;;;;;7.14;65.07;100969.94;4999220;28;20026;-39
2022/04/12 04:37:56;;;;;;;14.38;7.40;;;;;;;7.16;65.29;100983.44;5016463;28;20021;-38
2022/04/12 04:40:22;;;;;;;14.45;7.40;;;;;;;7.08;65.71;100982.59;5016816;28;20028;-39
2022/04/12 04:42:49;;;;;;;11.07;6.80;;;;;;;7.16;65.71;100991.16;5016308;28;20037;-39
2022/04/12 04:45:15;;;;;;;12.18;7.40;;;;;;;7.29;65.39;100989.88;5015653;28;20026;-39
2022/04/12 04:47:58;;;;;;;13.50;7.55;;;;;;;7.19;64.73;100995.97;5016155;28;20076;-39
2022/04/12 04:50:25;;;;;;;10.52;7.15;;;;;;;7.34;64.86;101003.06;4999631;28;20037;-39
2022/04/12 04:52:51;;;;;;;13.85;7.82;;;;;;;7.38;64.68;100997.41;5015278;28;20083;-39
2022/04/12 04:55:18;;;;;;;11.15;7.68;;;;;;;7.33;66.21;100997.09;4997886;28;20018;-38
2022/04/12 04:57:45;;;;;;;14.63;7.78;;;;;;;7.20;65.39;101002.72;5014987;28;20026;-38
2022/04/12 05:00:16;;;;;;;12.90;6.97;;;;;;;7.20;67.03;101004.47;5016697;28;20453;-39
2022/04/12 05:02:49;;;;;;;15.02;7.47;;;;;;;7.11;66.86;101013.16;5015387;28;20484;-39
2022/04/12 05:05:15;;;;;;;11.32;7.30;;;;;;;7.08;67.51;101014.25;5016151;28;20096;-38
2022/04/12 05:07:42;;;;;;;10.77;6.85;;;;;;;7.12;66.31;101018.13;5015719;28;20038;-38
2022/04/12 05:10:12;;;;;;;13.10;7.25;;;;;;;7.16;66.32;101010.88;5016236;28;20025;-39
2022/04/12 05:12:37;;;;;;;14.43;7.32;;;;;;;7.23;66.07;101010.09;5015594;28;20058;-39
2022/04/12 05:15:02;;;;;;;15.30;7.80;;;;;;;7.23;65.48;101012.66;5015889;28;20049;-38
2022/04/12 05:17:28;;;;;;;10.90;6.85;;;;;;;7.21;66.72;101013.78;5013947;28;20380;-39
2022/04/12 05:19:56;;;;;;;14.95;7.63;;;;;;;7.10;66.25;101008.94;4997699;28;20028;-39
2022/04/12 05:22:22;;;;;;;13.73;7.50;;;;;;;7.20;66.23;101002.72;5015133;28;20026;-39
2022/04/12 05:24:48;;;;;;;12.75;7.75;;;;;;;7.26;65.33;100987.63;5015234;28;20026;-39
2022/04/12 05:27:13;;;;;;;15.68;7.80;;;;;;;7.19;66.18;100985.69;5015524;28;20033;-39
2022/04/12 05:29:39;;;;;;;12.80;7.10;;;;;;;7.37;65.42;100979.59;5015252;28;20049;-39
2022/04/12 05:32:05;;;;;;;14.82;7.45;;;;;;;7.29;65.17;100980.38;5015782;28;20037;-39
2022/04/12 05:34:30;;;;;;;13.00;7.60;;;;;;;7.42;65.16;100993.56;5015470;28;20084;-38
2022/04/12 05:36:55;;;;;;;10.75;7.22;;;;;;;7.32;65.07;100989.53;5015348;28;20018;-39
2022/04/12 05:39:21;;;;;;;13.38;6.93;;;;;;;7.34;65.12;100991.00;5015124;28;20025;-39
2022/04/12 05:41:46;;;;;;;15.23;7.70;;;;;;;7.10;65.84;100965.25;5015134;28;20028;-39
2022/04/12 05:44:11;;;;;;;15.50;7.50;;;;;;;7.29;65.57;100989.88;5015396;28;20029;-39
2022/04/12 05:46:36;;;;;;;12.00;6.72;;;;;;;7.44;64.97;100978.78;5014983;28;20387;-39
2022/04/12 05:49:02;;;;;;;13.07;8.00;;;;;;;7.57;64.61;100988.59;5015035;28;20028;-40
2022/04/12 05:51:27;;;;;;;11.63;7.28;;;;;;;7.56;66.34;100979.25;4997766;28;20034;-39
2022/04/12 05:53:53;;;;;;;16.35;7.35;;;;;;;7.79;65.32;101001.72;5014969;28;20021;-39
2022/04/12 05:56:18;;;;;;;14.85;7.15;;;;;;;8.01;64.02;101000.25;5014205;28;20093;-38
2022/04/12 05:58:43;;;;;;;16.33;7.22;;;;;;;8.17;63.30;100999.41;5015026;28;20018;-38
2022/04/12 06:01:09;;;;;;;13.65;7.07;;;;;;;8.26;62.36;101001.00;5014745;28;20030;-38
2022/04/12 06:03:34;;;;;;;12.05;7.55;;;;;;;8.35;62.97;100998.22;4996457;28;20365;-44
2022/04/12 06:05:59;;;;;;;9.77;6.82;;;;;;;8.34;61.90;101003.53;5014674;28;20033;-39
2022/04/12 06:08:24;;;;;;;12.23;7.20;;;;;;;8.82;60.89;100994.00;5014367;28;20037;-41
2022/04/12 06:10:50;;;;;;;12.20;6.88;;;;;;;13.19;49.02;101000.31;5014121;28;20040;-39
2022/04/12 06:13:15;;;;;;;13.25;6.65;;;;;;;14.29;45.08;101001.38;5015566;28;20340;-39
2022/04/12 06:15:40;;;;;;;11.90;6.80;;;;;;;10.84;54.23;101012.06;5013949;28;20064;-39
2022/04/12 06:18:07;;;;;;;11.82;6.38;;;;;;;9.99;56.69;101009.22;5013950;28;20072;-38
2022/04/12 06:20:32;;;;;;;10.88;6.55;;;;;;;9.68;57.60;101002.41;4995195;28;20022;-39
2022/04/12 06:22:57;;;;;;;11.30;6.05;;;;;;;9.58;57.68;100999.25;4995559;28;20475;-38
2022/04/12 06:25:22;;;;;;;10.93;6.55;;;;;;;9.27;58.32;101005.31;5013782;28;20029;-39
2022/04/12 06:27:52;;;;;;;11.35;6.70;;;;;;;9.22;58.34;100997.28;5014482;28;20460;-39
2022/04/12 06:30:23;;;;;;;12.07;6.57;;;;;;;9.33;57.98;100998.69;4996418;28;20057;-39
2022/04/12 06:32:49;;;;;;;11.93;6.15;;;;;;;9.31;58.65;100996.25;5014990;28;20072;-40
2022/04/12 06:35:15;;;;;;;10.13;6.38;;;;;;;9.87;57.58;100988.19;5014259;28;20049;-39
2022/04/12 06:37:42;;;;;;;11.93;6.53;;;;;;;12.26;50.17;100990.50;5014102;28;20105;-38
2022/04/12 06:40:10;;;;;;;13.05;6.90;;;;;;;16.16;41.62;100993.81;5013877;28;20029;-40
2022/04/12 06:42:36;;;;;;;11.48;6.50;;;;;;;17.59;37.97;100996.59;5014141;28;20029;-40
2022/04/12 06:45:02;;;;;;;11.55;6.07;;;;;;;17.43;37.31;100995.44;5013916;28;20385;-41
2022/04/12 06:47:28;;;;;;;15.90;6.50;;;;;;;18.35;36.10;101000.00;5014169;28;20104;-41
2022/04/12 06:49:55;;;;;;;11.38;6.28;;;;;;;18.45;35.35;100986.31;5013950;28;20118;-40
2022/04/12 06:52:22;;;;;;;12.70;6.65;;;;;;;19.83;33.54;100986.66;4995730;28;20026;-40
2022/04/12 06:54:49;;;;;;;11.85;6.28;;;;;;;19.57;33.02;100961.94;5012656;28;20048;-39
2022/04/12 06:57:15;;;;;;;11.52;6.03;;;;;;;18.31;34.93;100987.63;4995170;28;20026;-41
2022/04/12 06:59:40;;;;;;;12.38;6.03;;;;;;;18.03;35.77;100973.50;5012226;28;20030;-40
2022/04/12 07:02:06;;;;;;;13.23;6.60;;;;;;;18.38;35.15;100969.97;4996029;28;20029;-41
2022/04/12 07:04:32;;;;;;;12.75;6.57;;;;;;;19.72;33.15;100969.22;5013385;28;20105;-39
2022/04/12 07:06:58;;;;;;;11.13;6.18;;;;;;;20.90;31.39;100963.38;5012292;28;20030;-41
2022/04/12 07:09:24;;;;;;;11.15;5.85;;;;;;;20.03;32.50;100965.13;5014020;28;20051;-42
2022/04/12 07:11:50;;;;;;;10.82;6.43;;;;;;;20.07;31.99;100960.19;5013580;28;20053;-41
2022/04/12 07:14:16;;;;;;;10.52;6.57;;;;;;;19.31;33.63;100955.53;5013816;28;20044;-40
2022/04/12 07:16:41;;;;;;;10.75;6.40;;;;;;;19.20;33.91;100961.66;5013599;28;20026;-42
2022/04/12 07:19:07;;;;;;;14.43;6.10;;;;;;;19.17;34.29;100967.38;5013731;28;20029;-40
2022/04/12 07:21:32;;;;;;;12.52;6.13;;;;;;;18.03;35.33;100979.50;5013334;28;20454;-41
2022/04/12 07:24:00;;;;;;;12.32;6.22;;;;;;;17.49;36.18;100975.47;5012234;28;20383;-40
2022/04/12 07:26:26;;;;;;;13.23;6.53;;;;;;;16.82;38.42;100965.28;5011920;28;20534;-40
2022/04/12 07:28:52;;;;;;;11.27;6.10;;;;;;;18.24;35.65;100967.63;5011301;28;20026;-40
2022/04/12 07:31:17;;;;;;;10.00;5.95;;;;;;;19.35;33.39;100961.09;5012150;28;20036;-41
2022/04/12 07:33:42;;;;;;;10.23;6.05;;;;;;;19.70;33.58;100963.41;5012074;28;20032;-40
2022/04/12 07:36:07;;;;;;;11.02;5.88;;;;;;;20.05;32.53;100970.13;5012001;28;20021;-41
2022/04/12 07:38:33;;;;;;;9.35;5.40;;;;;;;19.86;33.44;100964.41;5012588;28;20428;-41
2022/04/12 07:40:58;;;;;;;9.25;6.15;;;;;;;20.02;32.44;100962.75;5013390;28;20023;-40
2022/04/12 07:43:23;;;;;;;13.32;6.13;;;;;;;19.75;32.79;100962.69;4996647;28;20025;-41
2022/04/12 07:45:49;;;;;;;12.32;6.10;;;;;;;20.16;32.31;100960.53;4995954;28;20025;-41
2022/04/12 07:48:14;;;;;;;9.73;6.03;;;;;;;20.01;32.73;100950.69;5013261;28;20400;-40
2022/04/12 07:50:40;;;;;;;9.98;6.05;;;;;;;20.45;32.50;100948.75;5013323;28;20028;-41
2022/04/12 07:53:05;;;;;;;10.55;6.07;;;;;;;20.91;31.44;100951.03;5013597;28;20369;-42
2022/04/12 07:55:31;;;;;;;8.98;5.80;;;;;;;20.95;31.88;100955.53;4995720;28;20041;-39
2022/04/12 07:57:56;;;;;;;10.45;5.82;;;;;;;21.51;30.97;100957.72;5013322;28;20018;-49
2022/04/12 08:00:21;;;;;;;11.55;6.22;;;;;;;21.92;30.48;100955.28;5012942;28;20459;-40
2022/04/12 08:02:47;;;;;;;9.52;6.18;;;;;;;20.41;32.20;100955.56;5012740;28;20061;-40
2022/04/12 08:05:12;;;;;;;13.65;6.18;;;;;;;21.04;31.81;100952.44;5013248;28;20464;-41
2022/04/12 08:07:39;;;;;;;9.02;5.82;;;;;;;19.00;34.21;100956.91;5011968;28;20056;-40
2022/04/12 08:10:05;;;;;;;10.00;5.95;;;;;;;18.82;35.08;100960.56;5012859;28;20448;-41
2022/04/12 08:12:31;;;;;;;9.07;5.88;;;;;;;19.32;35.07;100954.50;5011303;28;20069;-41
2022/04/12 08:14:56;;;;;;;9.90;5.53;;;;;;;19.50;34.16;100961.28;5011550;28;20098;-40
2022/04/12 08:17:21;;;;;;;11.82;6.03;;;;;;;20.43;32.49;100961.38;5011343;28;20037;-40
2022/04/12 08:19:47;;;;;;;14.95;5.63;;;;;;;20.86;31.79;100954.41;5013580;28;20032;-41
2022/04/12 08:22:12;;;;;;;11.77;5.80;;;;;;;19.18;34.85;100948.00;5016815;28;20025;-40
2022/04/12 08:24:37;;;;;;;11.60;5.90;;;;;;;20.66;32.80;100944.53;5016419;28;20030;-40
2022/04/12 08:27:03;;;;;;;14.25;6.35;;;;;;;19.81;33.70;100946.00;5016421;28;20396;-40
2022/04/12 08:29:29;;;;;;;9.10;5.47;;;;;;;20.89;32.70;100946.03;4998977;28;20097;-41
2022/04/12 08:31:54;;;;;;;12.70;6.07;;;;;;;21.01;31.81;100943.22;5016286;28;20129;-40
2022/04/12 08:34:20;;;;;;;9.35;5.65;;;;;;;21.30;32.23;100943.66;5015605;28;20372;-40
2022/04/12 08:36:45;;;;;;;11.23;5.90;;;;;;;20.28;33.46;100942.81;5016772;28;20360;-41
2022/04/12 08:39:13;;;;;;;9.32;5.68;;;;;;;19.59;34.57;100949.38;5015064;28;20072;-41
2022/04/12 08:41:40;;;;;;;8.90;5.93;;;;;;;18.61;38.67;100948.91;4998626;28;20365;-40
2022/04/12 08:44:07;;;;;;;10.18;5.60;;;;;;;18.74;37.16;100940.00;4998810;28;20029;-40
2022/04/12 08:46:33;;;;;;;12.13;6.22;;;;;;;18.57;36.98;100944.41;5016577;28;20030;-40
2022/04/12 08:48:58;;;;;;;9.70;5.78;;;;;;;18.66;37.86;100937.75;4999203;28;20460;-39
2022/04/12 08:51:27;;;;;;;11.25;5.40;;;;;;;17.98;38.10;100942.00;5016179;28;20388;-40
2022/04/12 08:53:55;;;;;;;13.85;5.55;;;;;;;18.58;37.07;100938.91;4998906;28;20057;-40
2022/04/12 08:56:22;;;;;;;11.43;4.95;;;;;;;19.25;36.67;100932.94;5015885;28;20365;-40
2022/04/12 08:58:47;;;;;;;14.35;5.65;;;;;;;19.00;36.31;100941.19;5016493;28;20022;-40
2022/04/12 09:01:12;;;;;;;9.40;5.30;;;;;;;18.99;36.01;100944.88;5015784;28;20026;-40
2022/04/12 09:03:37;;;;;;;7.93;5.18;;;;;;;18.32;38.18;100942.13;5016090;28;20057;-41
2022/04/12 09:06:04;;;;;;;10.30;5.18;;;;;;;17.91;38.14;100933.50;5015647;28;20383;-40
2022/04/12 09:08:31;;;;;;;9.10;5.30;;;;;;;18.71;38.26;100935.22;5015960;28;20030;-39
2022/04/12 09:11:05;;;;;;;10.02;5.05;;;;;;;19.10;36.78;100932.69;5015368;28;20061;-41
2022/04/12 09:13:31;;;;;;;10.15;5.00;;;;;;;19.81;36.02;100943.38;4998083;28;20546;-40
2022/04/12 09:15:57;;;;;;;10.10;5.05;;;;;;;19.30;35.64;100927.75;5015522;28;20022;-41
2022/04/12 09:18:38;;;;;;;7.93;5.00;;;;;;;18.94;36.50;100932.47;5015765;28;20084;-40
2022/04/12 09:21:12;;;;;;;11.43;4.93;;;;;;;19.34;37.65;100925.44;5015688;28;20022;-40
2022/04/12 09:23:40;;;;;;;11.65;5.40;;;;;;;19.94;35.60;100932.53;5016214;28;20042;-40
2022/04/12 09:26:05;;;;;;;10.82;5.15;;;;;;;20.09;36.55;100931.88;5015577;28;20029;-39
2022/04/12 09:28:41;;;;;;;7.88;4.45;;;;;;;20.41;34.74;100931.94;5015456;28;20025;-40
2022/04/12 09:31:11;;;;;;;6.90;4.28;;;;;;;20.58;34.17;100933.69;5015330;28;20084;-41
2022/04/12 09:33:40;;;;;;;9.50;4.45;;;;;;;19.95;35.26;100920.19;5015718;28;20030;-41
2022/04/12 09:36:06;;;;;;;6.97;4.30;;;;;;;20.08;35.46;100917.16;5015367;28;20452;-40
2022/04/12 09:38:36;;;;;;;8.23;4.25;;;;;;;19.30;36.95;100908.63;4997441;28;20033;-43
2022/04/12 09:41:11;;;;;;;8.30;4.38;;;;;;;20.12;35.69;100910.41;5016063;28;20025;-41
2022/04/12 09:44:05;;;;;;;8.70;4.45;;;;;;;19.89;35.98;100902.81;5014899;28;20036;-41
2022/04/12 09:46:32;;;;;;;8.70;4.60;;;;;;;20.49;35.25;100904.47;4997263;28;20083;-42
2022/04/12 09:48:57;;;;;;;11.02;4.32;;;;;;;20.72;35.08;100891.00;5014654;28;20030;-41
2022/04/12 09:51:25;;;;;;;10.57;4.50;;;;;;;19.97;35.66;100884.81;5015764;28;20029;-39
2022/04/12 09:53:51;;;;;;;10.73;4.13;;;;;;;20.65;34.98;100873.88;5014661;28;20022;-41
2022/04/12 09:56:25;;;;;;;9.55;4.78;;;;;;;21.02;34.05;100883.59;5015242;28;20032;-41
2022/04/12 09:58:52;;;;;;;9.43;4.15;;;;;;;20.91;35.02;100894.00;5014711;28;20034;-40
2022/04/12 10:01:19;;;;;;;7.72;4.30;;;;;;;20.28;35.45;100883.28;5015129;28;20037;-41
2022/04/12 10:03:49;;;;;;;12.45;4.05;;;;;;;20.84;35.42;100887.41;5014964;28;20049;-40
2022/04/12 10:06:19;;;;;;;8.02;3.40;;;;;;;20.38;36.10;100889.66;5013843;28;20338;-41
2022/04/12 10:08:46;;;;;;;6.28;2.90;;;;;;;20.96;34.73;100880.13;4996790;28;20392;-41
2022/04/12 10:11:13;;;;;;;7.43;4.00;;;;;;;21.07;35.77;100887.03;5012688;28;20140;-40
2022/04/12 10:13:39;;;;;;;7.72;3.85;;;;;;;22.54;34.17;100879.84;5014495;28;20445;-41
2022/04/12 10:16:06;;;;;;;7.65;3.20;;;;;;;22.19;34.04;100891.19;5014773;28;20028;-40
2022/04/12 10:18:33;;;;;;;7.93;3.35;;;;;;;21.68;33.69;100883.13;5013569;28;20081;-41
2022/04/12 10:20:59;;;;;;;5.28;3.30;;;;;;;21.60;33.83;100879.16;5014147;28;20033;-40
2022/04/12 10:23:26;;;;;;;8.90;3.20;;;;;;;21.25;34.06;100870.03;5013438;28;20116;-39
2022/04/12 10:25:53;;;;;;;7.70;2.80;;;;;;;20.81;34.61;100865.06;5014806;28;20052;-41
2022/04/12 10:28:21;;;;;;;9.38;3.00;;;;;;;21.75;34.29;100866.06;5014243;28;20054;-39
2022/04/12 10:30:46;;;;;;;6.20;2.72;;;;;;;21.85;34.06;100854.78;5014501;28;20028;-41
2022/04/12 10:33:15;;;;;;;8.05;3.00;;;;;;;21.58;33.15;100860.25;5012859;28;20128;-41
2022/04/12 10:35:46;;;;;;;5.75;2.85;;;;;;;21.05;34.42;100854.19;5014161;28;20040;-40
2022/04/12 10:38:12;;;;;;;6.15;3.00;;;;;;;21.32;34.38;100848.78;5013968;28;20416;-40
2022/04/12 10:40:42;;;;;;;9.90;3.33;;;;;;;21.16;34.18;100853.97;5014090;28;20476;-41
2022/04/12 10:43:10;;;;;;;10.50;3.35;;;;;;;21.42;34.74;100843.59;4995924;28;20022;-41
2022/04/12 10:45:37;;;;;;;16.42;3.70;;;;;;;21.31;35.25;100840.09;5014585;28;20026;-41
2022/04/12 10:48:03;;;;;;;6.88;3.30;;;;;;;21.55;34.09;100847.56;4996624;28;20036;-41
2022/04/12 10:50:44;;;;;;;6.25;3.05;;;;;;;20.60;35.85;100843.16;5014178;28;20075;-41
2022/04/12 10:53:09;;;;;;;8.18;3.00;;;;;;;20.85;34.87;100818.88;5014008;28;20037;-41
2022/04/12 10:55:40;;;;;;;10.13;3.10;;;;;;;21.08;35.40;100833.44;5013072;28;20030;-41
2022/04/12 10:58:27;;;;;;;15.68;3.25;;;;;;;21.40;35.08;100833.34;5013657;28;20160;-41
2022/04/12 11:00:53;;;;;;;7.45;3.03;;;;;;;20.90;36.39;100839.13;5014235;28;20349;-40
2022/04/12 11:03:26;;;;;;;7.22;3.10;;;;;;;20.66;36.17;100823.75;5014120;28;20376;-41
2022/04/12 11:05:54;;;;;;;8.45;3.20;;;;;;;20.84;36.85;100817.28;5013763;28;20032;-40
2022/04/12 11:08:19;;;;;;;13.18;4.68;;;;;;;20.67;38.21;100819.28;5012242;28;20120;-40
2022/04/12 11:10:50;;;;;;;11.13;4.63;;;;;;;20.19;38.83;100818.38;5012975;28;20085;-40
2022/04/12 11:13:20;;;;;;;9.20;4.90;;;;;;;19.99;40.08;100816.38;5013664;28;20038;-40
2022/04/12 11:15:54;;;;;;;8.02;4.60;;;;;;;20.57;39.03;100806.09;5014330;28;20037;-40
2022/04/12 11:18:20;;;;;;;9.98;4.47;;;;;;;20.68;38.44;100819.03;4996634;28;20495;-40
2022/04/12 11:20:58;;;;;;;9.50;4.50;;;;;;;20.47;38.58;100827.78;5011779;28;20022;-41
2022/04/12 11:23:44;;;;;;;11.52;4.75;;;;;;;20.42;38.62;100820.66;4996596;28;20030;-39